• Join FlightAware (Why Join?)
  • Login
  • US Flag 
01:37PM EST


 

Airport Tracker/Info


-or-


 

Live Flight TrackerFlight Track Log ✈ JBU1269 ✈ 01-Sep-2013 ✈ KBOS - KFLL

Flight Track Log - Related Links

Times and Time Zones

All times are in EDT time to prevent confusion due to time zone crossing. See the JBU1269 flight status page for this flight to view local times or setup timezone preferences in your user account.

Time Position Orientation Groundspeed Altitude Reporting Facility
EDT Latitude Longitude Course Direction KTS MPH feet Rate Location/Type
09:26PM 42.3500 -70.9833 200° South 153 176 900  Level KA90
09:27PM 42.3167 -70.9000 118° Southeast 260 299 3,700 2,700 Climbing KA90
09:28PM 42.3333 -70.8000 77° East 281 323 7,500 3,480 Climbing KA90
09:29PM 42.3279 -70.7012 164° South  Level FlightAware Approximate
09:29PM 42.3000 -70.7000 114° Southeast 288 331 10,700  Level KA90
09:30PM 42.2195 -70.6431 160° South  Level FlightAware Approximate
09:31PM 42.1093 -70.6120 200° South  Level FlightAware Approximate
09:31PM 42.2069 -70.6461 157° South 351 404 12,800  Level Boston Center
09:32PM 42.1128 -70.6267 171° South 344 396 15,400 2,460 Climbing Boston Center
09:33PM 42.0136 -70.6742 200° South 348 400 17,600 2,280 Climbing Boston Center
09:34PM 41.8975 -70.7219 197° South 383 441 20,000 2,220 Climbing Boston Center
09:35PM 41.7964 -70.7778 202° Southwest 395 455 22,100 1,920 Climbing Boston Center
09:36PM 41.6950 -70.8442 206° Southwest 401 461 23,900 1,620 Climbing Boston Center
09:37PM 41.6086 -70.9214 214° Southwest 412 474 25,400 1,380 Climbing Boston Center
09:38PM 41.5161 -71.0178 218° Southwest 425 489 26,800 1,380 Climbing Boston Center
09:39PM 41.4383 -71.1442 231° Southwest 425 489 28,200 1,560 Climbing Boston Center
09:40PM 41.3647 -71.2731 233° Southwest 437 503 29,900 1,980 Climbing Boston Center
09:41PM 41.2869 -71.3931 229° Southwest 437 503 32,200 2,160 Climbing Boston Center
09:42PM 41.2128 -71.5075 229° Southwest 432 497 34,300 1,560 Climbing Boston Center
09:43PM 41.1450 -71.6408 236° Southwest 417 480 35,400 900 Climbing Boston Center
09:44PM 41.1000 -71.7736 246° West 406 467 36,100 960 Climbing Boston Center
09:45PM 41.0319 -71.8953 233° Southwest 406 467 37,300 900 Climbing Boston Center
09:46PM 40.9492 -72.0058 225° Southwest 414 476 38,000 300 Climbing Boston Center
09:47PM 40.8661 -72.1164 225° Southwest 420 483 38,000  Level Boston Center
09:48PM 40.7808 -72.2236 224° Southwest 425 489 38,000 -60 Level Boston Center
09:49PM 40.6936 -72.3253 221° Southwest 425 489 37,900 -60 Descending Boston Center
09:50PM 40.6164 -72.4319 226° Southwest 420 483 37,900  Level Boston Center
09:51PM 40.5311 -72.5356 223° Southwest 415 478 38,000  Climbing Boston Center
09:52PM 40.4539 -72.6392 226° Southwest 415 478 38,000 -60 Level Boston Center
09:53PM 40.3703 -72.7425 223° Southwest 409 471 37,900  Descending Boston Center
09:54PM 40.2950 -72.8428 225° Southwest 404 465 38,000  Climbing Boston Center
09:56PM 40.1061 -73.0853 225° Southwest 395 455 38,000  Level Washington Center
09:57PM 40.0247 -73.1856 223° Southwest 395 455 38,000  Level Washington Center
09:58PM 39.9433 -73.2886 224° Southwest 400 460 38,000  Level Washington Center
09:59PM 39.8619 -73.3886 223° Southwest 400 460 38,000  Level Washington Center
10:00PM 39.7783 -73.4856 222° Southwest 400 460 38,000  Level Washington Center
10:01PM 39.6925 -73.5853 222° Southwest 412 474 38,000  Level Washington Center
10:02PM 39.5872 -73.6528 206° Southwest 417 480 38,000  Level Washington Center
10:03PM 39.4864 -73.7200 207° Southwest 422 486 38,000  Level Washington Center
10:04PM 39.3811 -73.7925 208° Southwest 427 491 38,000 -60 Level Washington Center
10:05PM 39.2778 -73.8594 207° Southwest 427 491 37,900  Descending Washington Center
10:06PM 39.1706 -73.9317 208° Southwest 427 491 38,000  Climbing Washington Center
10:07PM 39.0569 -74.0039 206° Southwest 427 491 38,000 -60 Level Washington Center
10:08PM 38.9514 -74.0728 207° Southwest 427 491 37,900  Descending Washington Center
10:09PM 38.8461 -74.1417 207° Southwest 427 491 38,000  Climbing Washington Center
10:10PM 38.7425 -74.2103 207° Southwest 427 491 38,000  Level Washington Center
10:11PM 38.6369 -74.2761 206° Southwest 427 491 38,000  Level Washington Center
10:12PM 38.5336 -74.3442 207° Southwest 427 491 38,000  Level Washington Center
10:13PM 38.4258 -74.4178 208° Southwest 432 497 38,000  Level Washington Center
10:14PM 38.3222 -74.4775 204° Southwest 427 491 38,000  Level Washington Center
10:15PM 38.2164 -74.5506 208° Southwest 427 491 38,000 -60 Level Washington Center
10:16PM 38.1106 -74.6128 205° Southwest 427 491 37,900  Descending Washington Center
10:17PM 38.0172 -74.6772 209° Southwest 427 491 38,000  Climbing Washington Center
10:18PM 37.9094 -74.7392 204° Southwest 427 491 38,000 -60 Level Washington Center
10:19PM 37.8078 -74.8111 209° Southwest 427 491 37,900  Descending Washington Center
10:20PM 37.6997 -74.8753 205° Southwest 427 491 38,000  Climbing Washington Center
10:21PM 37.5936 -74.9419 206° Southwest 427 491 37,900  Descending Washington Center
10:22PM 37.4856 -75.0083 206° Southwest 427 491 38,000  Climbing Washington Center
10:23PM 37.3772 -75.0769 207° Southwest 432 497 38,000  Level Washington Center
10:24PM 37.2711 -75.1403 205° Southwest 432 497 38,000  Level Washington Center
10:25PM 37.1608 -75.2089 206° Southwest 432 497 38,000  Level Washington Center
10:26PM 37.0547 -75.2744 206° Southwest 432 497 38,000  Level Washington Center
10:27PM 36.9444 -75.3397 205° Southwest 432 497 38,000  Level Washington Center
10:28PM 36.8358 -75.4050 206° Southwest 432 497 38,000  Level Washington Center
10:29PM 36.7275 -75.4703 206° Southwest 432 497 38,000 -60 Level Washington Center
10:30PM 36.6192 -75.5350 206° Southwest 432 497 37,900 -60 Descending Washington Center
10:31PM 36.5086 -75.6022 206° Southwest 438 504 37,900  Level Washington Center
10:32PM 36.3958 -75.6694 206° Southwest 443 510 38,000  Climbing Washington Center
10:33PM 36.2853 -75.7364 206° Southwest 449 517 38,000  Level Washington Center
10:34PM 36.1725 -75.8031 206° Southwest 449 517 38,000  Level Washington Center
10:35PM 36.0575 -75.8747 207° Southwest 449 517 38,000  Level Washington Center
10:36PM 35.9447 -75.9408 205° Southwest 449 517 38,000  Level Washington Center
10:37PM 35.8319 -76.0097 206° Southwest 449 517 38,000  Level Washington Center
10:38PM 35.7189 -76.0706 204° Southwest 449 517 38,000  Level Washington Center
10:39PM 35.6081 -76.1389 207° Southwest 449 517 38,000 -60 Level Washington Center
10:40PM 35.4972 -76.2044 206° Southwest 449 517 37,900 -60 Descending Washington Center
10:41PM 35.3842 -76.2672 204° Southwest 449 517 37,900  Level Washington Center
10:42PM 35.2753 -76.3325 206° Southwest 444 511 38,000  Climbing Washington Center
10:43PM 35.1622 -76.4000 206° Southwest 444 511 38,000 -60 Level Washington Center
10:44PM 35.0428 -76.4750 207° Southwest 444 511 37,900  Descending Washington Center
10:45PM 34.9339 -76.5397 206° Southwest 444 511 38,000  Climbing Washington Center
10:46PM 34.8164 -76.6014 203° Southwest 450 518 38,000  Level Washington Center
10:47PM 34.7011 -76.6683 206° Southwest 455 524 38,000  Level Washington Center
10:49PM 34.4247 -76.8267 205° Southwest 455 524 38,000  Level Jacksonville Center
10:50PM 34.3111 -76.8897 205° Southwest 455 524 38,000  Level Jacksonville Center
10:51PM 34.1953 -76.9556 205° Southwest 455 524 38,000 -60 Level Jacksonville Center
10:52PM 34.0792 -77.0161 203° Southwest 455 524 37,900 -60 Descending Jacksonville Center
10:53PM 33.9583 -77.0667 199° South 455 524 37,900  Level Jacksonville Center
10:54PM 33.8442 -77.1219 202° Southwest 450 518 37,900  Level Jacksonville Center
10:55PM 33.7258 -77.1769 201° Southwest 450 518 38,000  Climbing Jacksonville Center
10:56PM 33.6069 -77.2297 200° South 450 518 38,000  Level Jacksonville Center
10:57PM 33.4906 -77.2844 201° Southwest 450 518 38,000  Level Jacksonville Center
10:58PM 33.3700 -77.3392 201° Southwest 455 524 38,000  Level Jacksonville Center
10:59PM 33.2472 -77.3942 201° Southwest 465 535 38,000  Level Jacksonville Center
11:00PM 33.1306 -77.4483 201° Southwest 465 535 38,000  Level Jacksonville Center
11:01PM 33.0117 -77.5003 200° South 459 528 38,000 -60 Level Jacksonville Center
11:02PM 32.8950 -77.5517 200° South 459 528 37,900 -60 Descending Jacksonville Center
11:03PM 32.7761 -77.6058 201° Southwest 459 528 37,900  Level Jacksonville Center
11:04PM 32.6594 -77.6594 201° Southwest 459 528 38,000  Climbing Jacksonville Center
11:05PM 32.5386 -77.7156 201° Southwest 459 528 38,000  Level Jacksonville Center
11:06PM 32.4197 -77.7667 200° South 465 535 38,000  Level Jacksonville Center
11:07PM 32.2967 -77.8203 200° South 465 535 38,000  Level Jacksonville Center
11:08PM 32.1797 -77.8733 201° Southwest 465 535 38,000 -60 Level Jacksonville Center
11:09PM 32.0608 -77.9239 200° South 465 535 37,900 -60 Descending Jacksonville Center
11:10PM 31.9419 -77.9817 202° Southwest 459 528 37,900  Level Jacksonville Center
11:11PM 31.8250 -78.0319 200° South 459 528 38,000  Climbing Jacksonville Center
11:12PM 31.7019 -78.0922 203° Southwest 466 536 38,000  Level Jacksonville Center
11:13PM 31.5989 -78.1269 196° South 450 518 38,000 -60 Level Jacksonville Center
11:14PM 31.4819 -78.1792 201° Southwest 445 512 37,900  Descending Jacksonville Center
11:15PM 31.3647 -78.2311 201° Southwest 445 512 38,000  Climbing Jacksonville Center
11:16PM 31.2317 -78.3008 204° Southwest 468 539 38,000  Level Jacksonville Center
11:17PM 31.1103 -78.3506 199° South 460 529 38,000  Level Jacksonville Center
11:18PM 31.0075 -78.3967 201° Southwest 466 536 38,000  Level Jacksonville Center
11:20PM 30.8003 -78.4875 201° Southwest 444 511 38,000  Level Miami Center
11:21PM 30.6769 -78.5386 200° South 451 519 38,000  Level Miami Center
11:22PM 30.5617 -78.5897 201° Southwest 451 519 38,000  Level Miami Center
11:23PM 30.4486 -78.6408 201° Southwest 446 513 38,000 -60 Level Miami Center
11:24PM 30.3269 -78.6867 198° South 459 528 37,900  Descending Miami Center
11:25PM 30.1992 -78.7444 201° Southwest 451 519 38,000  Climbing Miami Center
11:26PM 30.0775 -78.7928 199° South 450 518 38,000  Level Miami Center
11:27PM 29.9747 -78.8411 202° Southwest 450 518 38,000  Level Miami Center
11:28PM 29.8553 -78.8869 198° South 450 518 38,000  Level Miami Center
11:29PM 29.7397 -78.9372 201° Southwest 450 518 38,000  Level Miami Center
11:30PM 29.6244 -78.9900 202° Southwest 450 518 38,000  Level Miami Center
11:31PM 29.5069 -79.0378 199° South 450 518 38,000  Level Miami Center
11:32PM 29.3872 -79.0831 198° South 450 518 38,000  Level Miami Center
11:33PM 29.2758 -79.1353 202° Southwest 445 512 38,000  Level Miami Center
11:34PM 29.1583 -79.1806 199° South 445 512 38,000  Level Miami Center
11:35PM 29.0447 -79.2328 202° Southwest 445 512 38,000  Level Miami Center
11:36PM 28.9292 -79.2778 199° South 445 512 38,000  Level Miami Center
11:37PM 28.8078 -79.3081 192° South 445 512 38,000  Level Miami Center
11:38PM 28.6842 -79.3339 190° South 445 512 38,000  Level Miami Center
11:39PM 28.5586 -79.3619 191° South 450 518 38,000  Level Miami Center
11:40PM 28.4350 -79.3897 191° South 456 525 38,100  Climbing Miami Center
11:41PM 28.3117 -79.3917 181° South 449 517 38,000 -60 Descending Miami Center
11:42PM 28.1867 -79.3819 176° South 444 511 38,000 -360 Level Miami Center
11:43PM 28.0678 -79.3722 176° South 439 505 37,300 -1,920 Descending Miami Center
11:44PM 27.9428 -79.3600 175° South 444 511 34,100 -3,240 Descending Miami Center
11:45PM 27.8097 -79.3336 170° South 438 504 30,800 -2,280 Descending Miami Center
11:46PM 27.6994 -79.3006 165° South 448 516 29,700 -1,020 Descending Miami Center
11:47PM 27.5789 -79.2653 165° South 454 522 28,800 -960 Descending Miami Center
11:48PM 27.4456 -79.2578 177° South 449 517 27,800 -1,020 Descending Miami Center
11:49PM 27.3422 -79.3142 206° Southwest 416 479 26,800 -1,260 Descending Miami Center
11:50PM 27.2367 -79.3750 207° Southwest 421 484 25,300 -1,980 Descending Miami Center
11:51PM 27.1439 -79.4289 207° Southwest 421 484 23,000 -2,520 Descending Miami Center
11:52PM 27.0342 -79.4894 206° Southwest 412 474 20,400 -2,400 Descending Miami Center
11:53PM 26.9350 -79.5478 208° Southwest 412 474 18,100 -2,280 Descending Miami Center
11:54PM 26.8422 -79.5992 206° Southwest 398 458 15,900 -2,100 Descending Miami Center
11:55PM 26.7514 -79.6553 209° Southwest 386 444 14,100 -1,860 Descending Miami Center
11:56PM 26.6711 -79.7000 206° Southwest 352 405 12,300 -1,620 Descending Miami Center
11:57PM 26.5928 -79.7444 207° Southwest 322 371 10,900 -1,620 Descending Miami Center
11:58PM 26.5211 -79.7844 207° Southwest 297 342 9,100 -1,740 Descending Miami Center
11:59PM 26.4744 -79.8136 209° Southwest 282 325 8,100 -660 Descending Miami Center
12:00AM 26.4050 -79.8489 204° Southwest 284 327 8,000 -60 Descending Miami Center
12:01AM 26.3369 -79.9028 215° Southwest 283 326 8,000  Level Miami Center
12:02AM 26.2794 -79.9569 220° Southwest 281 323 8,000  Level Miami Center
12:03AM 26.2175 -80.0133 219° Southwest 280 322 8,000 -960 Level Miami Center
12:04AM 26.1725 -80.0744 231° Southwest 282 325 6,200 -2,040 Descending Miami Center
12:05AM 26.1475 -80.1617 252° West 272 313 3,800 -1,500 Descending Miami Center
12:06AM 26.1456 -80.2428 268° West 244 281 3,000 -960 Descending Miami Center
12:07AM 26.1400 -80.3050 264° West 221 254 2,100 -600 Descending Miami Center
12:08AM 26.0939 -80.3061 181° South 174 200 2,000 -300 Descending Miami Center
12:09AM 26.0742 -80.2569 114° Southeast 170 196 1,500 -600 Descending Miami Center
12:10AM 26.0753 -80.2106 88° East 123 142 800 -660 Descending Miami Center
12:12AM 26.0667 -80.1500 103° East  Level FlightAware Approximate
12:19AM 26.0726 -80.1527 103° East  Level Estimated